Time;durP1;ratioP1;P1;durP2;ratioP2;P2;SDS_P1;SDS_P2;PMS_P1;PMS_P2;Temp;Humidity;BMP_temperature;BMP_pressure;BME280_temperature;BME280_humidity;BME280_pressure;Samples;Min_cycle;Max_cycle;Signal;HPM_P1;HPM_P2
2021/09/07 00:02:25;;;;;;;2.53;2.10;;;18.90;99.90;;;;;;5034239;28;20427;-74
2021/09/07 00:04:54;;;;;;;2.50;1.80;;;18.80;99.90;;;;;;5033565;28;20442;-74
2021/09/07 00:07:24;;;;;;;2.20;1.70;;;18.70;99.90;;;;;;5033638;28;20431;-74
2021/09/07 00:09:53;;;;;;;3.65;2.00;;;18.70;99.90;;;;;;5033267;28;20438;-74
2021/09/07 00:12:22;;;;;;;4.10;2.80;;;18.80;99.90;;;;;;5034178;28;20438;-74
2021/09/07 00:14:50;;;;;;;3.63;1.73;;;18.80;99.90;;;;;;5035247;28;20466;-74
2021/09/07 00:17:20;;;;;;;2.50;2.00;;;18.80;99.90;;;;;;5034623;28;20634;-74
2021/09/07 00:19:49;;;;;;;2.78;2.20;;;18.80;99.90;;;;;;5031540;28;20611;-74
2021/09/07 00:22:17;;;;;;;2.57;1.90;;;18.80;99.90;;;;;;5032265;28;20423;-73
2021/09/07 00:24:46;;;;;;;2.70;1.73;;;18.80;99.90;;;;;;5030762;28;20423;-74
2021/09/07 00:27:14;;;;;;;2.80;1.60;;;18.90;99.90;;;;;;5032523;28;20703;-74
2021/09/07 00:29:42;;;;;;;2.25;1.88;;;18.80;99.90;;;;;;5032465;28;20789;-74
2021/09/07 00:32:11;;;;;;;3.55;2.50;;;18.80;99.90;;;;;;5032781;28;20714;-74
2021/09/07 00:34:40;;;;;;;2.47;2.10;;;18.80;99.90;;;;;;5033763;28;20410;-74
2021/09/07 00:37:08;;;;;;;3.67;2.00;;;18.70;99.90;;;;;;5033539;28;20423;-74
2021/09/07 00:39:39;;;;;;;2.85;1.73;;;18.70;99.90;;;;;;5032994;28;20442;-74
2021/09/07 00:42:07;;;;;;;2.60;1.70;;;18.60;99.90;;;;;;5033262;28;20423;-74
2021/09/07 00:44:35;;;;;;;3.50;2.00;;;18.60;99.90;;;;;;5034157;28;20438;-74
2021/09/07 00:47:05;;;;;;;2.45;1.73;;;18.50;99.90;;;;;;5034985;28;20514;-74
2021/09/07 00:49:35;;;;;;;2.30;1.90;;;18.40;99.90;;;;;;5035128;28;20431;-73
2021/09/07 00:52:06;;;;;;;2.30;1.60;;;18.40;99.90;;;;;;5034932;28;20501;-74
2021/09/07 00:54:36;;;;;;;3.15;1.90;;;18.40;99.90;;;;;;5035198;28;20467;-74
2021/09/07 00:57:06;;;;;;;1.90;1.70;;;18.40;99.90;;;;;;5034364;28;20466;-74
2021/09/07 00:59:34;;;;;;;2.50;1.60;;;18.40;99.90;;;;;;5037702;28;20601;-73
2021/09/07 01:02:03;;;;;;;3.35;1.90;;;18.30;99.90;;;;;;5055181;28;20433;-74
2021/09/07 01:04:32;;;;;;;3.10;2.05;;;18.30;99.90;;;;;;5054254;28;20523;-73
2021/09/07 01:07:01;;;;;;;3.00;2.00;;;18.30;99.90;;;;;;5053975;28;20741;-74
2021/09/07 01:09:31;;;;;;;3.75;2.10;;;18.30;99.90;;;;;;5053136;28;20425;-74
2021/09/07 01:12:00;;;;;;;2.80;1.80;;;18.30;99.90;;;;;;5054687;28;21057;-74
2021/09/07 01:14:31;;;;;;;2.00;1.70;;;18.10;99.90;;;;;;5054406;28;20520;-74
2021/09/07 01:17:00;;;;;;;2.53;2.03;;;18.10;99.90;;;;;;5054729;28;20425;-74
2021/09/07 01:19:32;;;;;;;2.00;1.70;;;17.90;99.90;;;;;;5053715;28;20495;-73
2021/09/07 01:22:00;;;;;;;3.17;1.98;;;17.80;99.90;;;;;;5054275;28;20499;-73
2021/09/07 01:24:30;;;;;;;2.93;1.90;;;17.90;99.90;;;;;;5052797;28;20441;-73
2021/09/07 01:27:01;;;;;;;3.75;2.00;;;17.90;99.90;;;;;;5054964;28;20511;-73
2021/09/07 01:29:29;;;;;;;2.28;1.70;;;17.80;99.90;;;;;;5058199;28;20430;-74
2021/09/07 01:31:59;;;;;;;3.00;2.00;;;17.80;99.90;;;;;;5057993;28;20421;-74
2021/09/07 01:34:28;;;;;;;3.60;2.00;;;17.80;99.90;;;;;;5050840;28;20520;-75
2021/09/07 01:36:57;;;;;;;2.22;1.80;;;17.80;99.90;;;;;;5057935;28;20436;-75
2021/09/07 01:39:25;;;;;;;2.40;1.80;;;17.80;99.90;;;;;;5058199;28;20441;-75
2021/09/07 01:41:56;;;;;;;2.40;1.80;;;17.70;99.90;;;;;;5058362;28;20421;-75
2021/09/07 01:44:25;;;;;;;2.75;2.25;;;17.70;99.90;;;;;;5058067;28;20856;-75
2021/09/07 01:46:54;;;;;;;2.00;1.60;;;17.70;99.90;;;;;;5058202;28;20821;-75
2021/09/07 01:49:22;;;;;;;3.13;1.60;;;17.70;99.90;;;;;;5057890;28;20429;-74
2021/09/07 01:51:53;;;;;;;2.53;1.88;;;17.70;99.90;;;;;;5057519;28;20425;-75
2021/09/07 01:54:21;;;;;;;2.60;2.08;;;17.70;99.90;;;;;;5057486;28;20457;-74
2021/09/07 01:56:52;;;;;;;2.47;2.00;;;17.60;99.90;;;;;;5057845;28;20780;-75
2021/09/07 01:59:22;;;;;;;2.30;1.60;;;17.60;99.90;;;;;;5057577;28;20880;-75
2021/09/07 02:01:50;;;;;;;2.50;1.80;;;17.50;99.90;;;;;;5058004;28;20774;-75
2021/09/07 02:04:17;;;;;;;2.85;1.98;;;17.60;99.90;;;;;;5057932;28;20763;-75
2021/09/07 02:06:44;;;;;;;2.40;1.50;;;17.60;99.90;;;;;;5057499;28;20789;-75
2021/09/07 02:09:11;;;;;;;2.20;1.90;;;17.60;99.90;;;;;;5057022;28;20848;-75
2021/09/07 02:11:38;;;;;;;2.80;2.40;;;17.70;99.90;;;;;;5056499;28;20460;-75
2021/09/07 02:14:05;;;;;;;2.70;1.90;;;17.60;99.90;;;;;;5057210;28;20457;-75
2021/09/07 02:16:33;;;;;;;3.50;1.83;;;17.40;99.90;;;;;;5057562;28;20787;-75
2021/09/07 02:19:00;;;;;;;2.72;1.50;;;17.30;99.90;;;;;;5056825;28;20520;-75
2021/09/07 02:21:27;;;;;;;3.28;2.10;;;17.30;99.90;;;;;;5057446;28;20592;-75
2021/09/07 02:23:54;;;;;;;2.80;2.20;;;17.30;99.90;;;;;;5054292;28;20452;-75
2021/09/07 02:26:22;;;;;;;2.30;1.70;;;17.40;99.90;;;;;;5055790;28;20749;-75
2021/09/07 02:28:49;;;;;;;4.60;2.20;;;17.30;99.90;;;;;;5057203;28;20421;-75
2021/09/07 02:31:16;;;;;;;3.60;2.50;;;17.30;99.90;;;;;;5057239;28;20491;-75
2021/09/07 02:33:44;;;;;;;2.60;2.00;;;17.20;99.90;;;;;;5056850;28;20448;-75
2021/09/07 02:36:11;;;;;;;2.60;2.00;;;17.10;99.90;;;;;;5056564;28;20875;-75
2021/09/07 02:38:38;;;;;;;2.60;2.38;;;17.10;99.90;;;;;;5054626;28;20516;-75
2021/09/07 02:41:05;;;;;;;2.17;1.85;;;17.20;99.90;;;;;;5056697;28;20571;-75
2021/09/07 02:43:32;;;;;;;2.65;2.25;;;17.20;99.90;;;;;;5055689;28;20428;-75
2021/09/07 02:45:59;;;;;;;3.70;2.10;;;17.20;99.90;;;;;;5056593;28;20888;-75
2021/09/07 02:48:26;;;;;;;3.05;1.80;;;17.30;99.90;;;;;;5057007;28;20440;-75
2021/09/07 02:50:54;;;;;;;2.78;1.70;;;17.20;99.90;;;;;;5057235;28;20433;-75
2021/09/07 02:53:21;;;;;;;2.27;2.00;;;17.30;99.90;;;;;;5056233;28;20516;-75
2021/09/07 02:55:48;;;;;;;2.85;2.20;;;17.30;99.90;;;;;;5054995;28;20879;-75
2021/09/07 02:58:14;;;;;;;3.30;1.70;;;17.30;99.90;;;;;;5055276;28;20500;-75
2021/09/07 03:00:41;;;;;;;2.00;1.80;;;17.30;99.90;;;;;;5053372;28;20492;-75
2021/09/07 03:03:09;;;;;;;3.00;2.40;;;17.30;99.90;;;;;;5053366;28;20468;-75
2021/09/07 03:05:37;;;;;;;2.63;1.80;;;17.30;99.90;;;;;;5053618;28;20429;-75
2021/09/07 03:08:06;;;;;;;2.80;1.80;;;17.30;99.90;;;;;;5054247;28;20454;-75
2021/09/07 03:10:33;;;;;;;2.50;2.00;;;17.30;99.90;;;;;;5054308;28;20516;-75
2021/09/07 03:13:00;;;;;;;3.10;1.88;;;17.30;99.90;;;;;;5054680;28;20487;-75
2021/09/07 03:15:27;;;;;;;3.35;2.00;;;17.30;99.90;;;;;;5055760;28;20489;-75
2021/09/07 03:17:54;;;;;;;2.70;1.90;;;17.30;99.90;;;;;;5055017;28;20771;-75
2021/09/07 03:20:21;;;;;;;2.80;2.10;;;17.30;99.90;;;;;;5046783;28;20528;-75
2021/09/07 03:22:48;;;;;;;2.10;1.90;;;17.30;99.90;;;;;;5053686;28;20914;-75
2021/09/07 03:25:16;;;;;;;2.55;1.90;;;17.30;99.90;;;;;;5053143;28;20824;-75
2021/09/07 03:27:43;;;;;;;3.35;2.15;;;17.30;99.90;;;;;;5054594;28;20425;-75
2021/09/07 03:30:11;;;;;;;3.08;2.15;;;17.20;99.90;;;;;;5054169;28;20749;-75
2021/09/07 03:32:39;;;;;;;2.50;1.90;;;17.10;99.90;;;;;;5055561;28;20460;-75
2021/09/07 03:35:07;;;;;;;3.65;2.30;;;17.00;99.90;;;;;;5055024;28;20497;-75
2021/09/07 03:37:34;;;;;;;2.60;2.17;;;17.00;99.90;;;;;;5056122;28;20455;-75
2021/09/07 03:40:01;;;;;;;2.80;2.13;;;17.00;99.90;;;;;;5054923;28;20536;-75
2021/09/07 03:42:34;;;;;;;2.80;2.13;;;17.00;99.90;;;;;;5054455;28;20464;-75
2021/09/07 03:45:01;;;;;;;2.40;2.00;;;17.10;99.90;;;;;;5054307;28;20429;-75
2021/09/07 03:47:28;;;;;;;3.03;1.90;;;17.10;99.90;;;;;;5054289;28;20508;-75
2021/09/07 03:49:55;;;;;;;2.90;2.10;;;17.10;99.90;;;;;;5053515;28;20515;-75
2021/09/07 03:52:22;;;;;;;2.50;2.30;;;17.20;99.90;;;;;;5054500;28;20508;-75
2021/09/07 03:54:49;;;;;;;3.10;2.40;;;17.10;99.90;;;;;;5055577;28;20472;-75
2021/09/07 03:57:16;;;;;;;5.90;2.50;;;17.10;99.90;;;;;;5056267;28;20492;-76
2021/09/07 03:59:44;;;;;;;2.53;2.30;;;17.00;99.90;;;;;;5055115;28;20441;-75
2021/09/07 04:02:11;;;;;;;3.20;2.22;;;17.00;99.90;;;;;;5054662;28;20487;-75
2021/09/07 04:04:38;;;;;;;3.20;2.10;;;17.00;99.90;;;;;;5055554;28;20474;-75
2021/09/07 04:07:05;;;;;;;2.10;1.88;;;16.90;99.90;;;;;;5055319;28;20863;-75
2021/09/07 04:09:32;;;;;;;3.03;2.00;;;16.90;99.90;;;;;;5055649;28;20795;-75
2021/09/07 04:11:59;;;;;;;4.30;2.15;;;16.80;99.90;;;;;;5055778;28;20421;-75
2021/09/07 04:14:26;;;;;;;2.70;2.00;;;16.90;99.90;;;;;;5054973;28;20863;-75
2021/09/07 04:16:54;;;;;;;2.88;2.30;;;16.90;99.90;;;;;;5054401;28;20508;-75
2021/09/07 04:19:21;;;;;;;2.80;2.10;;;17.00;99.90;;;;;;5045907;28;20613;-75
2021/09/07 04:21:48;;;;;;;4.60;2.30;;;17.00;99.90;;;;;;5054506;28;20791;-75
2021/09/07 04:24:15;;;;;;;4.70;2.20;;;17.10;99.90;;;;;;5052768;28;20852;-74
2021/09/07 04:26:42;;;;;;;3.55;2.20;;;17.10;99.90;;;;;;5054146;28;20511;-72
2021/09/07 04:29:09;;;;;;;3.30;2.47;;;17.00;99.90;;;;;;5054010;28;20878;-72
2021/09/07 04:31:36;;;;;;;2.30;1.73;;;17.00;99.90;;;;;;5054352;28;20871;-73
2021/09/07 04:34:04;;;;;;;3.50;2.60;;;16.90;99.90;;;;;;5054497;28;20422;-73
2021/09/07 04:36:31;;;;;;;3.05;2.15;;;16.80;99.90;;;;;;5054017;28;20511;-74
2021/09/07 04:38:58;;;;;;;2.40;2.00;;;16.80;99.90;;;;;;5053531;28;20475;-75
2021/09/07 04:41:25;;;;;;;3.25;2.58;;;16.70;99.90;;;;;;5054798;28;20532;-76
2021/09/07 04:43:52;;;;;;;3.50;2.42;;;16.80;99.90;;;;;;5054458;28;20508;-76
2021/09/07 04:46:19;;;;;;;3.28;2.50;;;16.70;99.90;;;;;;5053621;28;20938;-75
2021/09/07 04:48:48;;;;;;;3.88;2.47;;;16.70;99.90;;;;;;5053470;28;20482;-75
2021/09/07 04:51:16;;;;;;;2.90;2.47;;;16.70;99.90;;;;;;5053958;28;20784;-75
2021/09/07 04:53:43;;;;;;;3.13;1.85;;;16.80;99.90;;;;;;5054415;28;20951;-76
2021/09/07 04:56:10;;;;;;;3.17;2.38;;;16.90;99.90;;;;;;5053989;28;20508;-75
2021/09/07 04:58:37;;;;;;;4.68;2.70;;;16.90;99.90;;;;;;5052418;28;20451;-76
2021/09/07 05:01:04;;;;;;;4.10;2.50;;;16.80;99.90;;;;;;5035690;28;20519;-76
2021/09/07 05:03:31;;;;;;;2.45;2.10;;;16.80;99.90;;;;;;5035975;28;20844;-75
2021/09/07 05:05:58;;;;;;;4.70;2.10;;;16.90;99.90;;;;;;5026836;28;20519;-76
2021/09/07 05:08:27;;;;;;;2.83;1.95;;;17.00;99.90;;;;;;5015881;28;20503;-76
2021/09/07 05:10:54;;;;;;;3.47;2.10;;;17.20;99.90;;;;;;5016021;28;20851;-76
2021/09/07 05:13:20;;;;;;;2.88;2.58;;;17.40;99.90;;;;;;5015607;28;20495;-76
2021/09/07 05:15:47;;;;;;;3.50;2.03;;;17.50;99.90;;;;;;5017346;28;20867;-76
2021/09/07 05:18:14;;;;;;;4.38;2.40;;;17.50;99.90;;;;;;5017032;28;20455;-76
2021/09/07 05:20:41;;;;;;;2.88;2.08;;;17.60;99.90;;;;;;5016923;28;20531;-76
2021/09/07 05:23:08;;;;;;;2.70;2.20;;;17.60;99.90;;;;;;5017267;28;20479;-76
2021/09/07 05:25:39;;;;;;;4.05;2.38;;;17.60;99.90;;;;;;5017095;28;20428;-76
2021/09/07 05:28:06;;;;;;;2.67;2.47;;;17.60;99.90;;;;;;5017612;28;20483;-76
2021/09/07 05:30:33;;;;;;;3.03;2.60;;;17.60;99.90;;;;;;5017857;28;20787;-75
2021/09/07 05:33:00;;;;;;;4.63;2.47;;;17.60;99.90;;;;;;5016477;28;20455;-76
2021/09/07 05:35:27;;;;;;;3.72;3.33;;;17.70;99.90;;;;;;5016269;28;20464;-76
2021/09/07 05:37:54;;;;;;;2.55;2.35;;;17.70;99.90;;;;;;5015578;28;20507;-76
2021/09/07 05:40:21;;;;;;;3.45;2.70;;;17.70;99.90;;;;;;5014805;28;20942;-76
2021/09/07 05:42:49;;;;;;;2.90;2.33;;;17.70;99.90;;;;;;5014875;28;20448;-76
2021/09/07 05:45:18;;;;;;;5.07;3.00;;;17.70;99.90;;;;;;5015230;28;20871;-76
2021/09/07 05:47:45;;;;;;;3.30;3.00;;;17.80;99.90;;;;;;5015519;28;20843;-76
2021/09/07 05:50:14;;;;;;;4.25;2.53;;;17.80;99.90;;;;;;5015077;28;20437;-76
2021/09/07 05:52:42;;;;;;;3.25;2.78;;;17.80;99.90;;;;;;5017036;28;20428;-76
2021/09/07 05:55:10;;;;;;;4.03;2.95;;;17.90;99.90;;;;;;5015170;28;20412;-76
2021/09/07 05:57:37;;;;;;;4.22;3.17;;;17.90;99.90;;;;;;5015368;28;20523;-76
2021/09/07 06:00:08;;;;;;;3.63;2.60;;;18.00;99.90;;;;;;5024396;28;20450;-76
2021/09/07 06:02:35;;;;;;;3.83;2.72;;;18.00;99.90;;;;;;5034492;28;20465;-73
2021/09/07 06:05:02;;;;;;;5.50;3.05;;;18.10;99.90;;;;;;5050176;28;20431;-79
2021/09/07 06:07:31;;;;;;;4.23;2.60;;;18.20;99.90;;;;;;5056875;28;20407;-79
2021/09/07 06:09:58;;;;;;;4.07;3.10;;;18.20;99.90;;;;;;5057092;28;20430;-80
2021/09/07 06:12:25;;;;;;;2.90;2.60;;;18.30;99.90;;;;;;5036243;28;20792;-78
2021/09/07 06:14:52;;;;;;;3.10;2.20;;;18.40;99.90;;;;;;5036309;28;20439;-78
2021/09/07 06:17:21;;;;;;;4.20;3.38;;;18.50;99.90;;;;;;5037929;28;20423;-78
2021/09/07 06:19:48;;;;;;;4.23;2.67;;;18.50;99.90;;;;;;5044159;28;20431;-79
2021/09/07 06:22:15;;;;;;;3.22;2.42;;;18.50;99.90;;;;;;5046730;28;20442;-80
2021/09/07 06:24:42;;;;;;;3.83;2.60;;;18.50;99.90;;;;;;5042237;28;20466;-79
2021/09/07 06:27:14;;;;;;;3.50;2.33;;;18.60;99.90;;;;;;5043601;28;20795;-80
2021/09/07 06:29:42;;;;;;;5.60;2.73;;;18.50;99.90;;;;;;5061587;28;20530;-76
2021/09/07 06:32:09;;;;;;;3.90;2.30;;;18.50;99.90;;;;;;5063655;28;20475;-77
2021/09/07 06:34:37;;;;;;;3.70;2.88;;;18.50;99.90;;;;;;5066307;28;20433;-76
2021/09/07 06:37:05;;;;;;;4.80;4.10;;;18.50;99.90;;;;;;5059027;28;20785;-75
2021/09/07 06:39:32;;;;;;;4.20;3.25;;;18.60;99.90;;;;;;5064620;28;20437;-76
2021/09/07 06:41:59;;;;;;;5.45;3.45;;;18.50;99.90;;;;;;5068991;28;20429;-77
2021/09/07 06:44:26;;;;;;;6.40;3.58;;;18.40;99.90;;;;;;5065246;28;20441;-77
2021/09/07 06:46:53;;;;;;;4.85;4.13;;;18.20;99.90;;;;;;5059387;28;20401;-76
2021/09/07 06:49:20;;;;;;;5.10;4.32;;;18.00;99.90;;;;;;5052332;28;20429;-76
2021/09/07 06:51:48;;;;;;;5.18;4.40;;;18.00;99.90;;;;;;5052320;28;20909;-76
2021/09/07 06:54:15;;;;;;;4.28;3.45;;;18.00;99.90;;;;;;5049073;28;21516;-76
2021/09/07 06:56:45;;;;;;;4.00;2.92;;;18.10;99.90;;;;;;5052188;28;20467;-76
2021/09/07 06:59:12;;;;;;;4.97;4.40;;;18.30;99.90;;;;;;5036927;28;20481;-76
2021/09/07 07:01:39;;;;;;;5.07;3.60;;;18.30;99.90;;;;;;5051962;28;20536;-75
2021/09/07 07:04:05;;;;;;;3.67;2.95;;;18.40;99.90;;;;;;5043020;28;20430;-75
2021/09/07 07:06:32;;;;;;;3.55;2.90;;;18.60;99.90;;;;;;5032549;28;20579;-75
2021/09/07 07:09:01;;;;;;;4.25;2.70;;;18.80;99.90;;;;;;5045822;28;20491;-74
2021/09/07 07:11:28;;;;;;;8.55;5.00;;;18.90;99.90;;;;;;5032948;28;20434;-75
2021/09/07 07:13:55;;;;;;;4.90;3.38;;;19.00;99.90;;;;;;5037422;28;20463;-76
2021/09/07 07:16:22;;;;;;;4.70;2.75;;;19.00;99.90;;;;;;5046270;28;20424;-75
2021/09/07 07:18:49;;;;;;;5.10;3.37;;;19.00;99.90;;;;;;5043134;28;20429;-75
2021/09/07 07:21:16;;;;;;;3.60;3.00;;;19.00;99.90;;;;;;5037351;28;20542;-75
2021/09/07 07:23:43;;;;;;;5.00;3.00;;;19.10;99.90;;;;;;5032202;28;20463;-74
2021/09/07 07:26:11;;;;;;;4.15;3.22;;;19.10;99.90;;;;;;5036660;28;20522;-75
2021/09/07 07:28:38;;;;;;;5.20;3.33;;;19.20;99.90;;;;;;5041544;28;20423;-74
2021/09/07 07:31:05;;;;;;;5.60;3.30;;;19.20;99.90;;;;;;5032072;28;20435;-75
2021/09/07 07:33:32;;;;;;;6.20;3.40;;;19.10;99.90;;;;;;5048210;28;20460;-74
2021/09/07 07:35:59;;;;;;;5.35;4.43;;;19.30;99.90;;;;;;5034871;28;20434;-75
2021/09/07 07:38:26;;;;;;;3.72;2.25;;;19.30;99.90;;;;;;5045583;28;20426;-74
2021/09/07 07:40:53;;;;;;;4.30;2.40;;;19.30;99.90;;;;;;5044442;28;20437;-75
2021/09/07 07:43:24;;;;;;;3.90;3.05;;;19.50;99.90;;;;;;5037399;28;20940;-75
2021/09/07 07:45:52;;;;;;;3.72;3.08;;;19.50;99.90;;;;;;5052962;28;20441;-75
2021/09/07 07:48:20;;;;;;;5.90;4.00;;;19.50;99.90;;;;;;5051764;28;20498;-75
2021/09/07 07:50:47;;;;;;;4.10;2.60;;;19.70;99.90;;;;;;5042439;28;20466;-75
2021/09/07 07:53:14;;;;;;;6.20;3.85;;;19.90;99.90;;;;;;5046452;28;20783;-75
2021/09/07 07:55:40;;;;;;;3.92;2.20;;;20.00;99.90;;;;;;5048682;28;20531;-75
2021/09/07 07:58:07;;;;;;;3.60;3.08;;;20.30;99.90;;;;;;5045799;28;20665;-75
2021/09/07 08:00:36;;;;;;;4.20;3.05;;;20.50;99.90;;;;;;5030317;28;20962;-75
2021/09/07 08:03:03;;;;;;;3.50;3.20;;;20.50;99.90;;;;;;5044225;28;20841;-75
2021/09/07 08:05:34;;;;;;;4.00;3.30;;;20.50;99.90;;;;;;5049567;28;20520;-75
2021/09/07 08:08:03;;;;;;;5.07;2.80;;;20.50;99.90;;;;;;5050476;28;20457;-75
2021/09/07 08:10:30;;;;;;;4.38;3.28;;;20.60;99.90;;;;;;5051851;28;20448;-75
2021/09/07 08:12:57;;;;;;;6.32;3.10;;;20.50;99.90;;;;;;5051876;28;20519;-75
2021/09/07 08:15:24;;;;;;;4.22;2.90;;;20.40;99.90;;;;;;5049847;28;20712;-76
2021/09/07 08:17:52;;;;;;;4.03;3.50;;;20.30;99.90;;;;;;5048326;28;20509;-74
2021/09/07 08:20:19;;;;;;;6.95;5.30;;;20.40;99.90;;;;;;5040041;28;20510;-75
2021/09/07 08:22:46;;;;;;;4.65;2.30;;;20.40;99.90;;;;;;5032655;28;20451;-75
2021/09/07 08:25:13;;;;;;;5.60;3.38;;;20.60;99.90;;;;;;5031568;28;20505;-74
2021/09/07 08:27:40;;;;;;;5.10;2.80;;;20.70;99.90;;;;;;5033671;28;20480;-75
2021/09/07 08:30:09;;;;;;;3.20;2.23;;;20.60;99.90;;;;;;5037724;28;20777;-75
2021/09/07 08:32:39;;;;;;;2.50;1.70;;;20.70;99.90;;;;;;5035607;28;20885;-75
2021/09/07 08:35:09;;;;;;;4.57;2.75;;;20.80;99.90;;;;;;5033801;28;20548;-75
2021/09/07 08:37:36;;;;;;;3.10;1.60;;;20.90;99.90;;;;;;5034866;28;20431;-75
2021/09/07 08:40:03;;;;;;;3.05;2.00;;;21.10;99.90;;;;;;5036352;28;20543;-76
2021/09/07 08:42:33;;;;;;;4.53;2.00;;;21.40;99.90;;;;;;5035849;28;20470;-72
2021/09/07 08:45:01;;;;;;;3.70;2.00;;;21.60;99.90;;;;;;5035067;28;20536;-76
2021/09/07 08:47:29;;;;;;;3.92;2.30;;;21.60;99.90;;;;;;5034692;28;20796;-73
2021/09/07 08:49:57;;;;;;;5.05;2.17;;;21.70;99.90;;;;;;5034870;28;20441;-74
2021/09/07 08:52:25;;;;;;;4.18;2.45;;;21.90;99.90;;;;;;5036484;28;20503;-74
2021/09/07 08:54:52;;;;;;;3.30;1.90;;;22.10;99.90;;;;;;5037232;28;20533;-77
2021/09/07 08:57:19;;;;;;;4.25;3.20;;;22.30;99.90;;;;;;5034640;28;20489;-74
2021/09/07 08:59:56;;;;;;;5.00;2.60;;;22.50;99.90;;;;;;5055967;28;20486;-74
2021/09/07 09:02:23;;;;;;;4.20;2.05;;;22.50;99.90;;;;;;5055715;28;20847;-76
2021/09/07 09:04:51;;;;;;;4.82;3.00;;;22.50;99.90;;;;;;5055407;28;20453;-75
2021/09/07 09:07:23;;;;;;;3.10;2.00;;;22.50;99.90;;;;;;5055088;28;20488;-76
2021/09/07 09:09:53;;;;;;;6.87;2.30;;;22.70;99.90;;;;;;5054811;28;20472;-76
2021/09/07 09:12:30;;;;;;;3.97;2.70;;;22.70;99.90;;;;;;5055318;28;20444;-77
2021/09/07 09:14:58;;;;;;;4.60;3.00;;;22.70;99.90;;;;;;5056466;28;20439;-76
2021/09/07 09:17:28;;;;;;;5.93;3.10;;;22.60;99.90;;;;;;5057089;28;20507;-76
2021/09/07 09:19:59;;;;;;;3.53;2.07;;;22.60;99.90;;;;;;5054798;28;20804;-76
2021/09/07 09:22:44;;;;;;;4.40;2.73;;;22.70;99.90;;;;;;5047405;28;20474;-76
2021/09/07 09:25:36;;;;;;;3.10;2.80;;;22.80;99.90;;;;;;5053371;28;20429;-76
2021/09/07 09:28:14;;;;;;;3.95;2.50;;;22.80;99.90;;;;;;5053083;28;20787;-76
2021/09/07 09:30:44;;;;;;;3.58;2.00;;;22.70;99.90;;;;;;5053680;28;20473;-76
2021/09/07 09:33:13;;;;;;;3.40;2.30;;;22.70;99.90;;;;;;5053155;28;20925;-76
2021/09/07 09:35:52;;;;;;;3.65;2.80;;;22.70;99.90;;;;;;5052063;28;20432;-76
2021/09/07 09:38:20;;;;;;;3.67;2.30;;;22.80;99.90;;;;;;5052551;28;20440;-76
2021/09/07 09:40:55;;;;;;;4.28;2.17;;;22.90;99.90;;;;;;5054200;28;20522;-76
2021/09/07 09:43:28;;;;;;;4.50;3.10;;;23.00;99.90;;;;;;5054367;28;20496;-76
2021/09/07 09:45:56;;;;;;;4.00;2.60;;;23.10;99.90;;;;;;5054168;28;20638;-76
2021/09/07 09:48:27;;;;;;;3.80;2.85;;;23.20;99.90;;;;;;5053852;28;20878;-76
2021/09/07 09:50:56;;;;;;;4.93;2.30;;;23.20;99.90;;;;;;5048477;28;20863;-75
2021/09/07 09:53:23;;;;;;;3.20;2.60;;;23.20;99.90;;;;;;5056835;28;20476;-76
2021/09/07 09:55:52;;;;;;;2.42;1.70;;;23.30;99.90;;;;;;5053799;28;20437;-75
2021/09/07 09:58:22;;;;;;;3.38;2.30;;;23.50;99.90;;;;;;5056056;28;20499;-74
2021/09/07 10:00:50;;;;;;;3.40;2.30;;;23.70;99.90;;;;;;5055348;28;20499;-74
2021/09/07 10:03:18;;;;;;;4.38;2.20;;;23.90;99.90;;;;;;5053932;28;20810;-75
2021/09/07 10:05:46;;;;;;;3.70;1.80;;;24.00;99.90;;;;;;5041970;28;20497;-75
2021/09/07 10:08:17;;;;;;;3.45;2.10;;;24.30;99.90;;;;;;5035329;28;20455;-74
2021/09/07 10:10:51;;;;;;;3.45;2.20;;;24.40;99.90;;;;;;5034983;28;20426;-74
2021/09/07 10:13:24;;;;;;;3.50;2.28;;;24.60;99.90;;;;;;5034621;28;20858;-76
2021/09/07 10:15:55;;;;;;;33.10;5.20;;;24.90;99.90;;;;;;5042613;28;20495;-78
2021/09/07 10:18:44;;;;;;;4.00;1.85;;;24.80;99.90;;;;;;5055990;28;20786;-77
2021/09/07 10:21:19;;;;;;;4.00;2.10;;;25.00;99.90;;;;;;5049842;28;20436;-75
2021/09/07 10:23:54;;;;;;;2.80;1.77;;;25.30;99.90;;;;;;5055047;28;21713;-76
2021/09/07 10:26:53;;;;;;;4.20;2.10;;;25.60;99.90;;;;;;5055840;28;20433;-76
2021/09/07 10:29:41;;;;;;;2.73;1.80;;;26.00;99.90;;;;;;5047816;28;20882;-76
2021/09/07 10:32:30;;;;;;;5.63;2.05;;;26.10;99.90;;;;;;5063598;28;20427;-76
2021/09/07 10:35:12;;;;;;;2.83;1.90;;;26.50;99.90;;;;;;5062423;28;20523;-77
2021/09/07 10:38:14;;;;;;;4.18;2.10;;;26.30;99.90;;;;;;5058521;28;20452;-76
2021/09/07 10:40:51;;;;;;;1.90;1.40;;;26.10;99.90;;;;;;5060867;28;20426;-76
2021/09/07 10:43:56;;;;;;;2.40;1.63;;;26.00;99.90;;;;;;5055696;28;20497;-76
2021/09/07 10:46:48;;;;;;;3.33;1.60;;;25.90;99.90;;;;;;5054762;28;20425;-76
2021/09/07 10:49:24;;;;;;;2.58;1.90;;;26.20;99.90;;;;;;5056239;28;20840;-77
2021/09/07 10:52:11;;;;;;;2.20;1.70;;;26.30;99.90;;;;;;5051501;28;20409;-76
2021/09/07 10:55:06;;;;;;;1.95;1.60;;;26.80;99.90;;;;;;5045929;28;20437;-77
2021/09/07 10:58:02;;;;;;;2.20;1.30;;;26.90;99.90;;;;;;5050037;28;20424;-76
2021/09/07 11:00:39;;;;;;;1.90;1.30;;;27.30;99.90;;;;;;5052628;28;20428;-76
2021/09/07 11:03:24;;;;;;;1.73;1.40;;;27.60;99.90;;;;;;5052643;28;20828;-76
2021/09/07 11:05:51;;;;;;;2.80;1.30;;;27.70;99.90;;;;;;5054082;28;20597;-77
2021/09/07 11:08:35;;;;;;;3.00;1.70;;;27.60;99.90;;;;;;5054568;28;20471;-76
2021/09/07 11:11:22;;;;;;;1.90;1.40;;;27.50;99.90;;;;;;5052316;28;20441;-76
2021/09/07 11:13:51;;;;;;;1.60;1.30;;;27.70;99.90;;;;;;5053455;28;20426;-77
2021/09/07 11:16:22;;;;;;;2.20;1.40;;;27.60;99.90;;;;;;5052859;28;20502;-77
2021/09/07 11:19:01;;;;;;;1.70;1.30;;;27.30;99.90;;;;;;5052292;28;20426;-76
2021/09/07 11:21:28;;;;;;;2.30;1.40;;;27.60;98.60;;;;;;5054088;28;20444;-77
2021/09/07 11:24:00;;;;;;;1.70;1.20;;;27.50;98.40;;;;;;5051978;28;20524;-75
2021/09/07 11:26:29;;;;;;;1.60;1.20;;;27.80;97.40;;;;;;5056633;28;20438;-77
2021/09/07 11:28:56;;;;;;;1.77;1.30;;;27.90;97.50;;;;;;5054201;28;20460;-77
2021/09/07 11:31:23;;;;;;;1.90;1.40;;;27.70;98.40;;;;;;5053396;28;20480;-77
2021/09/07 11:33:55;;;;;;;2.20;1.35;;;28.00;97.50;;;;;;5052195;28;20516;-75
2021/09/07 11:36:23;;;;;;;1.60;1.15;;;28.00;93.80;;;;;;5051330;28;20437;-76
2021/09/07 11:38:51;;;;;;;1.70;1.30;;;27.80;94.10;;;;;;5052096;28;20479;-77
2021/09/07 11:41:20;;;;;;;2.15;1.20;;;27.90;92.50;;;;;;5049917;28;20429;-76
2021/09/07 11:43:50;;;;;;;1.70;1.10;;;27.60;93.30;;;;;;5050414;28;20487;-75
2021/09/07 11:46:18;;;;;;;1.70;1.20;;;27.70;90.90;;;;;;5048789;28;20497;-79
2021/09/07 11:48:47;;;;;;;1.70;1.10;;;27.60;92.00;;;;;;5049535;28;20715;-75
2021/09/07 11:51:17;;;;;;;2.03;1.23;;;27.70;91.60;;;;;;5048738;28;20588;-74
2021/09/07 11:53:45;;;;;;;1.40;1.10;;;27.70;92.80;;;;;;5049261;28;20496;-76
2021/09/07 11:56:20;;;;;;;3.10;1.20;;;27.80;87.50;;;;;;5048978;28;20529;-76
2021/09/07 11:58:47;;;;;;;1.75;1.27;;;27.50;87.50;;;;;;5064217;28;20412;-74
2021/09/07 12:01:17;;;;;;;1.80;1.40;;;27.30;89.00;;;;;;5070671;28;20431;-75
2021/09/07 12:03:49;;;;;;;1.45;1.10;;;27.40;89.00;;;;;;5073074;28;20423;-72
2021/09/07 12:06:20;;;;;;;2.50;1.20;;;27.20;89.00;;;;;;5064734;28;20923;-72
2021/09/07 12:08:48;;;;;;;1.50;1.30;;;27.20;90.90;;;;;;5053472;28;20477;-72
2021/09/07 12:11:29;;;;;;;2.00;1.40;;;27.50;89.40;;;;;;5052908;28;20520;-72
2021/09/07 12:14:03;;;;;;;2.70;1.30;;;27.50;87.60;;;;;;5052214;28;20774;-72
2021/09/07 12:16:31;;;;;;;1.90;1.30;;;27.40;85.80;;;;;;5052106;28;20529;-71
2021/09/07 12:18:58;;;;;;;2.30;1.40;;;27.40;85.50;;;;;;5049250;28;20504;-73
2021/09/07 12:21:27;;;;;;;1.70;1.23;;;27.60;90.60;;;;;;5051533;28;20484;-73
2021/09/07 12:23:56;;;;;;;2.35;1.20;;;27.90;86.40;;;;;;5050507;28;20803;-74
2021/09/07 12:26:42;;;;;;;3.60;1.20;;;27.80;88.60;;;;;;5056361;28;20441;-72
2021/09/07 12:29:14;;;;;;;1.70;1.20;;;27.90;86.20;;;;;;5050582;28;20472;-72
2021/09/07 12:31:42;;;;;;;1.90;1.20;;;27.60;85.80;;;;;;5049759;28;20608;-71
2021/09/07 12:34:09;;;;;;;2.58;1.50;;;27.90;86.00;;;;;;5048490;28;20430;-72
2021/09/07 12:40:00;;;;;;;2.50;1.30;;;28.20;81.70;;;;;;5024899;28;20854;-72
2021/09/07 12:42:27;;;;;;;2.35;1.20;;;28.00;84.30;;;;;;5046852;28;20460;-71
2021/09/07 12:44:54;;;;;;;1.55;1.35;;;28.00;82.70;;;;;;5069419;28;20777;-72
2021/09/07 12:47:21;;;;;;;1.70;1.20;;;27.80;82.10;;;;;;5071123;28;20420;-72
2021/09/07 12:49:48;;;;;;;2.10;1.38;;;27.60;84.90;;;;;;5070730;28;20877;-72
2021/09/07 12:52:15;;;;;;;1.67;1.20;;;27.60;82.80;;;;;;5064552;28;20461;-73
2021/09/07 12:54:42;;;;;;;1.60;1.20;;;27.40;85.10;;;;;;5051502;28;20484;-72
2021/09/07 12:57:10;;;;;;;1.58;1.20;;;27.60;85.50;;;;;;5050108;28;20461;-72
2021/09/07 12:59:37;;;;;;;2.25;1.27;;;27.60;83.50;;;;;;5051333;28;20711;-73
2021/09/07 13:02:04;;;;;;;1.80;1.30;;;27.70;82.30;;;;;;5054757;28;20540;-73
2021/09/07 13:04:31;;;;;;;1.83;1.30;;;27.40;83.30;;;;;;5051750;28;20425;-74